createdAt,value
2023-02-12T00:01:20.893Z,3.00
2023-02-12T00:03:51.039Z,3.00
2023-02-12T00:06:19.596Z,3.00
2023-02-12T00:08:50.863Z,3.00
2023-02-12T00:11:21.022Z,3.00
2023-02-12T00:13:49.708Z,2.90
2023-02-12T00:16:20.194Z,2.90
2023-02-12T00:18:49.065Z,2.80
2023-02-12T00:21:18.870Z,2.80
2023-02-12T00:23:47.369Z,2.80
2023-02-12T00:26:17.434Z,2.80
2023-02-12T00:28:46.080Z,2.80
2023-02-12T00:31:16.267Z,2.80
2023-02-12T00:33:44.897Z,2.80
2023-02-12T00:36:16.147Z,2.80
2023-02-12T00:38:46.421Z,2.80
2023-02-12T00:41:15.109Z,2.80
2023-02-12T00:43:43.604Z,2.90
2023-02-12T00:46:12.306Z,2.90
2023-02-12T00:48:40.922Z,2.90
2023-02-12T00:51:09.599Z,3.00
2023-02-12T00:53:38.635Z,3.00
2023-02-12T00:56:08.584Z,3.00
2023-02-12T00:58:37.263Z,3.10
2023-02-12T01:01:05.982Z,3.20
2023-02-12T01:03:34.481Z,3.30
2023-02-12T01:06:03.085Z,3.60
2023-02-12T01:08:31.614Z,4.40
2023-02-12T01:11:01.669Z,4.70
2023-02-12T01:13:32.379Z,4.70
2023-02-12T01:16:06.740Z,4.70
2023-02-12T01:18:35.236Z,4.90
2023-02-12T01:21:04.873Z,5.00
2023-02-12T01:23:33.288Z,4.90
2023-02-12T01:26:01.745Z,4.80
2023-02-12T01:28:31.592Z,4.60
2023-02-12T01:31:00.186Z,4.50
2023-02-12T01:33:28.665Z,4.30
2023-02-12T01:35:58.041Z,4.30
2023-02-12T01:38:26.525Z,4.20
2023-02-12T01:40:54.879Z,4.10
2023-02-12T01:43:23.304Z,4.20
2023-02-12T01:45:54.855Z,4.10
2023-02-12T01:48:25.555Z,4.10
2023-02-12T01:50:54.809Z,4.00
2023-02-12T01:53:25.026Z,4.00
2023-02-12T01:55:56.718Z,4.00
2023-02-12T01:58:26.326Z,3.90
2023-02-12T02:00:56.408Z,3.90
2023-02-12T02:03:24.996Z,3.90
2023-02-12T02:05:58.045Z,3.90
2023-02-12T02:08:27.096Z,3.90
2023-02-12T02:10:55.540Z,3.90
2023-02-12T02:13:41.621Z,4.00
2023-02-12T02:16:19.268Z,4.10
2023-02-12T02:18:51.520Z,4.10
2023-02-12T02:21:42.776Z,4.10
2023-02-12T02:24:42.000Z,4.00
2023-02-12T02:27:20.827Z,4.00
2023-02-12T02:30:15.454Z,4.00
2023-02-12T02:32:56.973Z,3.90
2023-02-12T02:35:29.494Z,3.90
2023-02-12T02:38:06.913Z,3.90
2023-02-12T02:40:41.509Z,4.00
2023-02-12T02:43:12.409Z,4.00
2023-02-12T02:45:44.285Z,4.00
2023-02-12T02:48:18.913Z,4.20
2023-02-12T02:50:50.948Z,4.20
2023-02-12T02:53:22.819Z,4.20
2023-02-12T02:55:54.353Z,4.10
2023-02-12T02:58:27.155Z,4.30
2023-02-12T03:00:58.377Z,4.50
2023-02-12T03:03:31.715Z,4.50
2023-02-12T03:06:04.668Z,4.40
2023-02-12T03:08:37.608Z,4.40
2023-02-12T03:11:09.206Z,4.60
2023-02-12T03:13:40.719Z,4.60
2023-02-12T03:16:12.703Z,4.90
2023-02-12T03:18:46.361Z,5.20
2023-02-12T03:21:18.267Z,5.40
2023-02-12T03:23:52.576Z,5.40
2023-02-12T03:26:24.771Z,5.30
2023-02-12T03:28:53.231Z,5.20
2023-02-12T03:31:29.862Z,5.10
2023-02-12T03:34:08.898Z,5.00
2023-02-12T03:36:43.200Z,4.90
2023-02-12T03:39:15.257Z,4.70
2023-02-12T03:41:46.155Z,4.70
2023-02-12T03:44:22.775Z,4.60
2023-02-12T03:46:59.462Z,4.80
2023-02-12T03:49:32.660Z,4.90
2023-02-12T03:52:01.089Z,4.90
2023-02-12T03:54:29.548Z,4.80
2023-02-12T03:57:02.728Z,4.70
2023-02-12T03:59:31.597Z,4.70
2023-02-12T04:02:00.770Z,4.60
2023-02-12T04:04:30.814Z,4.50
2023-02-12T04:06:59.584Z,4.50
2023-02-12T04:09:29.067Z,4.40
2023-02-12T04:12:12.553Z,4.30
2023-02-12T04:14:45.707Z,4.20
2023-02-12T04:17:23.388Z,4.70
2023-02-12T04:20:04.760Z,5.00
2023-02-12T04:22:44.962Z,4.90
2023-02-12T04:25:22.923Z,4.70
2023-02-12T04:27:58.288Z,4.60
2023-02-12T04:30:30.754Z,4.40
2023-02-12T04:33:02.049Z,4.60
2023-02-12T04:35:34.904Z,4.60
2023-02-12T04:38:08.679Z,4.60
2023-02-12T04:40:37.785Z,4.60
2023-02-12T04:43:06.266Z,4.70
2023-02-12T04:45:36.741Z,4.90
2023-02-12T04:48:06.060Z,5.00
2023-02-12T04:50:40.483Z,5.10
2023-02-12T04:53:09.203Z,5.20
2023-02-12T04:55:37.745Z,5.30
2023-02-12T04:58:06.774Z,5.20
2023-02-12T05:00:35.213Z,5.30
2023-02-12T05:03:03.706Z,5.30
2023-02-12T05:05:32.148Z,5.40
2023-02-12T05:08:02.144Z,5.50
2023-02-12T05:10:30.638Z,5.60
2023-02-12T05:12:59.045Z,5.50
2023-02-12T05:15:27.566Z,5.60
2023-02-12T05:17:55.991Z,5.50
2023-02-12T05:20:24.399Z,5.50
2023-02-12T05:22:53.992Z,5.50
2023-02-12T05:25:23.860Z,5.40
2023-02-12T05:27:52.276Z,5.30
2023-02-12T05:30:20.937Z,5.40
2023-02-12T05:32:49.329Z,5.50
2023-02-12T05:35:17.875Z,5.40
2023-02-12T05:37:46.325Z,5.30
2023-02-12T05:40:15.669Z,5.30
2023-02-12T05:42:45.436Z,5.20
2023-02-12T05:45:13.912Z,5.10
2023-02-12T05:47:42.350Z,5.30
2023-02-12T05:50:11.517Z,5.30
2023-02-12T05:52:40.029Z,5.30
2023-02-12T05:55:09.390Z,5.30
2023-02-12T05:57:37.786Z,5.20
2023-02-12T06:00:09.741Z,5.40
2023-02-12T06:02:38.398Z,5.50
2023-02-12T06:05:07.603Z,5.50
2023-02-12T06:07:36.057Z,5.40
2023-02-12T06:10:04.532Z,5.40
2023-02-12T06:12:33.035Z,5.30
2023-02-12T06:15:01.569Z,5.30
2023-02-12T06:17:31.350Z,5.20
2023-02-12T06:19:59.789Z,5.10
2023-02-12T06:22:29.285Z,5.10
2023-02-12T06:24:57.745Z,5.10
2023-02-12T06:27:26.153Z,5.10
2023-02-12T06:29:54.627Z,5.10
2023-02-12T06:32:23.073Z,5.20
2023-02-12T06:34:55.191Z,4.90
2023-02-12T06:37:23.630Z,4.30
2023-02-12T06:39:52.042Z,3.90
2023-02-12T06:42:20.512Z,3.50
2023-02-12T06:44:51.329Z,3.40
2023-02-12T06:47:21.068Z,3.10
2023-02-12T06:49:49.533Z,2.90
2023-02-12T06:52:19.270Z,2.80
2023-02-12T06:54:47.770Z,2.10
2023-02-12T06:57:16.332Z,2.30
2023-02-12T06:59:45.121Z,2.30
2023-02-12T07:02:13.561Z,2.10
2023-02-12T07:04:42.096Z,2.20
2023-02-12T07:07:10.510Z,2.40
2023-02-12T07:09:40.350Z,2.30
2023-02-12T07:12:08.940Z,2.30
2023-02-12T07:14:37.500Z,2.40
2023-02-12T07:17:07.921Z,2.40
2023-02-12T07:19:36.514Z,2.30
2023-02-12T07:22:05.227Z,2.30
2023-02-12T07:24:33.725Z,2.40
2023-02-12T07:27:03.484Z,2.40
2023-02-12T07:29:31.954Z,2.20
2023-02-12T07:32:00.773Z,2.30
2023-02-12T07:34:29.248Z,2.40
2023-02-12T07:36:57.644Z,2.50
2023-02-12T07:39:26.196Z,2.40
2023-02-12T07:41:54.717Z,2.40
2023-02-12T07:44:24.516Z,2.50
2023-02-12T07:46:53.023Z,2.50
2023-02-12T07:49:22.890Z,2.60
2023-02-12T07:51:51.780Z,2.70
2023-02-12T07:54:20.301Z,2.90
2023-02-12T07:56:48.811Z,2.90
2023-02-12T07:59:18.477Z,3.00
2023-02-12T08:01:49.719Z,3.10
2023-02-12T08:04:19.938Z,3.10
2023-02-12T08:06:49.746Z,3.10
2023-02-12T08:09:20.446Z,3.10
2023-02-12T08:11:49.042Z,3.30
2023-02-12T08:14:19.174Z,3.30
2023-02-12T08:16:49.918Z,3.30
2023-02-12T08:19:21.940Z,3.20
2023-02-12T08:21:52.540Z,3.20
2023-02-12T08:24:22.067Z,3.40
2023-02-12T08:26:50.896Z,3.50
2023-02-12T08:29:21.080Z,3.60
2023-02-12T08:31:52.033Z,3.70
2023-02-12T08:34:23.129Z,3.80
2023-02-12T08:36:54.066Z,3.90
2023-02-12T08:39:23.008Z,4.10
2023-02-12T08:41:52.031Z,4.30
2023-02-12T08:44:20.640Z,4.30
2023-02-12T08:46:51.569Z,4.50
2023-02-12T08:49:21.768Z,4.70
2023-02-12T08:51:51.868Z,4.90
2023-02-12T08:54:22.435Z,5.10
2023-02-12T08:56:50.987Z,5.20
2023-02-12T08:59:19.511Z,5.30
2023-02-12T09:01:48.190Z,5.50
2023-02-12T09:04:21.540Z,5.50
2023-02-12T09:06:50.531Z,5.60
2023-02-12T09:09:19.680Z,5.80
2023-02-12T09:11:49.427Z,5.90
2023-02-12T09:14:24.314Z,6.00
2023-02-12T09:16:53.862Z,6.10
2023-02-12T09:19:23.941Z,6.30
2023-02-12T09:21:55.734Z,6.40
2023-02-12T09:24:25.560Z,6.50
2023-02-12T09:26:54.124Z,6.60
2023-02-12T09:29:22.542Z,6.70
2023-02-12T09:31:51.053Z,7.00
2023-02-12T09:34:19.581Z,7.20
2023-02-12T09:36:49.398Z,7.40
2023-02-12T09:39:17.967Z,7.60
2023-02-12T09:42:03.662Z,7.90
2023-02-12T09:44:38.042Z,8.10
2023-02-12T09:47:11.083Z,8.20
2023-02-12T09:49:53.545Z,8.30
2023-02-12T09:52:26.650Z,8.40
2023-02-12T09:54:55.694Z,8.50
2023-02-12T09:57:29.466Z,8.50
2023-02-12T10:00:00.198Z,8.50
2023-02-12T10:02:28.786Z,8.50
2023-02-12T10:05:01.623Z,8.50
2023-02-12T10:07:41.717Z,8.60
2023-02-12T10:10:19.806Z,8.60
2023-02-12T10:12:51.774Z,8.70
2023-02-12T10:15:33.642Z,8.80
2023-02-12T10:18:17.625Z,8.80
2023-02-12T10:21:00.998Z,8.90
2023-02-12T10:23:43.896Z,8.90
2023-02-12T10:26:20.688Z,9.10
2023-02-12T10:28:49.723Z,9.20
2023-02-12T10:31:23.424Z,9.30
2023-02-12T10:33:54.605Z,9.40
2023-02-12T10:36:32.527Z,9.50
2023-02-12T10:39:05.513Z,9.60
2023-02-12T10:41:34.457Z,9.60
2023-02-12T10:44:02.883Z,9.80
2023-02-12T10:46:32.152Z,10.00
2023-02-12T10:49:02.277Z,10.00
2023-02-12T10:51:40.316Z,10.30
2023-02-12T10:54:40.155Z,10.40
2023-02-12T10:57:18.582Z,10.50
2023-02-12T10:59:49.101Z,10.40
2023-02-12T11:02:24.287Z,10.40
2023-02-12T11:04:54.216Z,10.30
2023-02-12T11:07:23.155Z,10.30
2023-02-12T11:09:55.104Z,10.30
2023-02-12T11:12:32.272Z,10.50
2023-02-12T11:15:02.212Z,10.70
2023-02-12T11:17:35.917Z,10.70
2023-02-12T11:20:10.207Z,10.70
2023-02-12T11:22:38.586Z,10.70
2023-02-12T11:25:17.929Z,10.70
2023-02-12T11:27:46.482Z,10.70
2023-02-12T11:30:20.441Z,10.80
2023-02-12T11:32:51.678Z,11.00
2023-02-12T11:35:25.781Z,11.10
2023-02-12T11:37:56.427Z,11.20
2023-02-12T11:40:28.556Z,11.20
2023-02-12T11:42:59.325Z,11.30
2023-02-12T11:45:31.430Z,11.40
2023-02-12T11:48:00.249Z,11.60
2023-02-12T11:50:30.844Z,11.60
2023-02-12T11:53:01.695Z,11.60
2023-02-12T11:55:34.046Z,11.60
2023-02-12T11:58:06.653Z,11.60
2023-02-12T12:00:38.641Z,11.80
2023-02-12T12:03:13.930Z,11.90
2023-02-12T12:05:46.775Z,12.00
2023-02-12T12:08:20.362Z,12.00
2023-02-12T12:10:52.946Z,12.20
2023-02-12T12:13:26.058Z,12.30
2023-02-12T12:16:19.523Z,12.30
2023-02-12T12:19:07.535Z,12.30
2023-02-12T12:21:41.460Z,12.40
2023-02-12T12:24:14.860Z,12.40
2023-02-12T12:26:48.528Z,12.50
2023-02-12T12:29:22.029Z,12.50
2023-02-12T12:31:51.956Z,12.50
2023-02-12T12:34:27.746Z,12.50
2023-02-12T12:37:25.656Z,12.50
2023-02-12T12:40:09.235Z,12.50
2023-02-12T12:43:02.890Z,12.50
2023-02-12T12:45:59.600Z,12.60
2023-02-12T12:48:39.372Z,12.70
2023-02-12T12:51:18.727Z,12.70
2023-02-12T12:53:57.511Z,12.60
2023-02-12T12:56:46.876Z,12.60
2023-02-12T12:59:38.002Z,12.60
2023-02-12T13:02:52.688Z,12.60
2023-02-12T13:05:39.077Z,12.60
2023-02-12T13:08:14.745Z,12.60
2023-02-12T13:10:49.599Z,12.50
2023-02-12T13:13:27.792Z,12.60
2023-02-12T13:16:04.438Z,12.50
2023-02-12T13:18:42.730Z,12.50
2023-02-12T13:21:15.838Z,12.50
2023-02-12T13:23:49.395Z,12.50
2023-02-12T13:26:30.877Z,12.50
2023-02-12T13:29:03.229Z,12.60
2023-02-12T13:31:41.850Z,12.60
2023-02-12T13:34:15.010Z,12.60
2023-02-12T13:36:44.352Z,12.50
2023-02-12T13:39:18.021Z,12.40
2023-02-12T13:41:49.048Z,12.30
2023-02-12T13:44:21.524Z,12.20
2023-02-12T13:46:58.283Z,12.20
2023-02-12T13:49:36.368Z,12.20
2023-02-12T13:52:08.087Z,12.20
2023-02-12T13:54:46.528Z,12.20
2023-02-12T13:57:17.737Z,12.30
2023-02-12T13:59:48.092Z,12.30
2023-02-12T14:02:43.951Z,12.30
2023-02-12T14:05:28.983Z,12.30
2023-02-12T14:08:00.728Z,12.20
2023-02-12T14:10:39.989Z,12.10
2023-02-12T14:13:19.469Z,12.00
2023-02-12T14:15:51.604Z,12.00
2023-02-12T14:18:30.463Z,11.90
2023-02-12T14:21:44.181Z,11.80
2023-02-12T14:24:51.819Z,11.60
2023-02-12T14:27:36.062Z,11.40
2023-02-12T14:30:26.782Z,11.40
2023-02-12T14:33:26.328Z,11.30
2023-02-12T14:36:21.928Z,11.30
2023-02-12T14:39:01.584Z,11.60
2023-02-12T14:41:37.547Z,11.70
2023-02-12T14:44:47.023Z,11.70
2023-02-12T14:47:52.096Z,11.60
2023-02-12T14:50:28.061Z,11.50
2023-02-12T14:53:12.882Z,11.30
2023-02-12T14:55:43.680Z,11.20
2023-02-12T14:58:19.832Z,11.20
2023-02-12T15:00:49.719Z,11.20
2023-02-12T15:03:25.866Z,11.10
2023-02-12T15:06:06.308Z,11.00
2023-02-12T15:08:43.805Z,11.00
2023-02-12T15:11:21.649Z,10.90
2023-02-12T15:13:53.622Z,10.90
2023-02-12T15:16:42.939Z,10.90
2023-02-12T15:19:23.578Z,10.80
2023-02-12T15:21:54.445Z,10.80
2023-02-12T15:24:25.544Z,10.70
2023-02-12T15:26:55.503Z,10.60
2023-02-12T15:29:27.995Z,10.60
2023-02-12T15:31:58.582Z,10.60
2023-02-12T15:34:30.056Z,10.50
2023-02-12T15:37:00.175Z,10.50
2023-02-12T15:39:34.749Z,10.40
2023-02-12T15:42:03.491Z,10.40
2023-02-12T15:44:34.980Z,10.30
2023-02-12T15:47:11.961Z,10.30
2023-02-12T15:49:42.265Z,10.20
2023-02-12T15:52:17.073Z,10.10
2023-02-12T15:54:47.716Z,10.00
2023-02-12T15:57:22.524Z,9.80
2023-02-12T15:59:52.742Z,9.70
2023-02-12T16:02:23.191Z,9.60
2023-02-12T16:04:51.824Z,9.60
2023-02-12T16:07:20.988Z,9.50
2023-02-12T16:09:52.329Z,9.40
2023-02-12T16:12:23.213Z,9.30
2023-02-12T16:14:53.359Z,9.20
2023-02-12T16:17:24.558Z,9.10
2023-02-12T16:19:59.572Z,9.00
2023-02-12T16:22:32.377Z,8.90
2023-02-12T16:25:02.753Z,8.60
2023-02-12T16:27:32.417Z,8.40
2023-02-12T16:30:02.192Z,8.30
2023-02-12T16:32:35.008Z,8.20
2023-02-12T16:35:07.221Z,8.00
2023-02-12T16:37:45.562Z,7.60
2023-02-12T16:40:39.445Z,7.40
2023-02-12T16:43:26.636Z,7.40
2023-02-12T16:46:06.515Z,7.20
2023-02-12T16:48:39.804Z,7.10
2023-02-12T16:51:08.633Z,7.00
2023-02-12T16:53:47.590Z,6.80
2023-02-12T16:56:21.121Z,6.70
2023-02-12T16:58:51.432Z,6.80
2023-02-12T17:01:26.008Z,6.80
2023-02-12T17:03:55.126Z,6.70
2023-02-12T17:06:24.857Z,6.70
2023-02-12T17:08:53.444Z,6.60
2023-02-12T17:11:24.186Z,6.60
2023-02-12T17:13:54.221Z,6.50
2023-02-12T17:16:31.806Z,6.40
2023-02-12T17:19:01.722Z,6.30
2023-02-12T17:21:31.799Z,6.20
2023-02-12T17:24:00.383Z,6.20
2023-02-12T17:26:30.168Z,6.10
2023-02-12T17:29:05.223Z,6.10
2023-02-12T17:31:34.282Z,6.10
2023-02-12T17:34:03.148Z,6.00
2023-02-12T17:36:32.112Z,6.00
2023-02-12T17:39:00.827Z,6.00
2023-02-12T17:41:30.780Z,6.00
2023-02-12T17:43:59.577Z,5.90
2023-02-12T17:46:29.275Z,5.80
2023-02-12T17:48:58.398Z,5.70
2023-02-12T17:51:27.295Z,5.60
2023-02-12T17:53:55.692Z,5.40
2023-02-12T17:56:25.698Z,5.30
2023-02-12T17:58:55.580Z,5.20
2023-02-12T18:01:25.028Z,5.10
2023-02-12T18:03:55.834Z,5.00
2023-02-12T18:06:26.087Z,5.00
2023-02-12T18:08:55.391Z,5.00
2023-02-12T18:11:24.238Z,4.90
2023-02-12T18:13:55.739Z,4.90
2023-02-12T18:16:25.172Z,4.90
2023-02-12T18:18:53.777Z,4.90
2023-02-12T18:21:22.260Z,4.80
2023-02-12T18:23:50.898Z,4.80
2023-02-12T18:26:20.160Z,4.80
2023-02-12T18:28:48.918Z,4.70
2023-02-12T18:31:20.630Z,4.70
2023-02-12T18:33:49.282Z,4.70
2023-02-12T18:36:19.673Z,4.60
2023-02-12T18:38:49.551Z,4.60
2023-02-12T18:41:19.781Z,4.50
2023-02-12T18:43:48.317Z,4.40
2023-02-12T18:46:20.630Z,4.30
2023-02-12T18:48:49.916Z,4.20
2023-02-12T18:51:21.089Z,4.20
2023-02-12T18:53:49.825Z,4.10
2023-02-12T18:56:18.297Z,4.10
2023-02-12T18:58:46.905Z,4.00
2023-02-12T19:01:16.508Z,4.00
2023-02-12T19:03:46.833Z,4.00
2023-02-12T19:06:15.256Z,4.00
2023-02-12T19:08:43.848Z,4.00
2023-02-12T19:11:15.677Z,4.00
2023-02-12T19:13:44.368Z,4.00
2023-02-12T19:16:14.882Z,3.90
2023-02-12T19:18:43.590Z,3.90
2023-02-12T19:21:16.321Z,3.80
2023-02-12T19:23:44.915Z,3.70
2023-02-12T19:26:15.327Z,3.70
2023-02-12T19:28:44.238Z,3.60
2023-02-12T19:31:15.395Z,3.60
2023-02-12T19:33:44.814Z,3.60
2023-02-12T19:36:16.313Z,3.60
2023-02-12T19:38:44.924Z,3.60
2023-02-12T19:41:15.655Z,3.50
2023-02-12T19:43:44.488Z,3.50
2023-02-12T19:46:14.655Z,3.40
2023-02-12T19:48:43.392Z,3.40
2023-02-12T19:51:16.109Z,3.40
2023-02-12T19:53:45.224Z,3.30
2023-02-12T19:56:13.937Z,3.30
2023-02-12T19:58:42.560Z,3.20
2023-02-12T20:01:12.988Z,3.20
2023-02-12T20:03:41.565Z,3.10
2023-02-12T20:06:12.184Z,3.10
2023-02-12T20:08:44.037Z,3.10
2023-02-12T20:11:14.140Z,3.10
2023-02-12T20:13:43.131Z,3.10
2023-02-12T20:16:15.883Z,3.00
2023-02-12T20:18:44.580Z,3.00
2023-02-12T20:21:14.968Z,3.00
2023-02-12T20:23:44.945Z,3.00
2023-02-12T20:26:15.205Z,2.90
2023-02-12T20:28:44.154Z,2.90
2023-02-12T20:31:13.867Z,2.90
2023-02-12T20:33:42.700Z,2.80
2023-02-12T20:36:12.542Z,2.70
2023-02-12T20:38:41.574Z,2.70
2023-02-12T20:41:12.151Z,2.60
2023-02-12T20:43:40.630Z,2.60
2023-02-12T20:46:10.878Z,2.50
2023-02-12T20:48:39.342Z,2.50
2023-02-12T20:51:09.130Z,2.50
2023-02-12T20:53:38.045Z,2.50
2023-02-12T20:56:08.884Z,2.50
2023-02-12T20:58:40.475Z,2.50
2023-02-12T21:01:12.323Z,2.50
2023-02-12T21:03:41.211Z,2.50
2023-02-12T21:06:09.738Z,2.40
2023-02-12T21:08:39.066Z,2.50
2023-02-12T21:11:12.951Z,2.40
2023-02-12T21:13:50.327Z,2.40
2023-02-12T21:16:28.838Z,2.40
2023-02-12T21:18:57.580Z,2.40
2023-02-12T21:21:28.670Z,2.30
2023-02-12T21:23:58.341Z,2.30
2023-02-12T21:26:28.485Z,2.30
2023-02-12T21:29:01.190Z,2.30
2023-02-12T21:31:31.148Z,2.30
2023-02-12T21:34:00.797Z,2.30
2023-02-12T21:36:31.288Z,2.30
2023-02-12T21:39:00.140Z,2.20
2023-02-12T21:41:30.151Z,2.10
2023-02-12T21:44:03.397Z,2.10
2023-02-12T21:46:31.883Z,2.10
2023-02-12T21:49:00.597Z,2.10
2023-02-12T21:51:30.468Z,2.10
2023-02-12T21:54:00.356Z,2.10
2023-02-12T21:56:29.613Z,2.90
2023-02-12T21:59:00.000Z,3.80
2023-02-12T22:01:29.971Z,4.60
2023-02-12T22:03:58.393Z,5.20
2023-02-12T22:06:26.853Z,5.60
2023-02-12T22:08:56.265Z,5.60
2023-02-12T22:11:24.684Z,5.40
2023-02-12T22:13:53.320Z,5.00
2023-02-12T22:16:25.390Z,4.70
2023-02-12T22:18:56.129Z,4.40
2023-02-12T22:21:25.630Z,4.10
2023-02-12T22:23:54.829Z,3.90
2023-02-12T22:26:24.965Z,3.80
2023-02-12T22:28:55.393Z,3.70
2023-02-12T22:31:26.927Z,3.60
2023-02-12T22:33:57.176Z,3.50
2023-02-12T22:36:26.189Z,3.40
2023-02-12T22:38:56.368Z,3.50
2023-02-12T22:41:24.885Z,3.70
2023-02-12T22:43:53.417Z,3.60
2023-02-12T22:46:22.410Z,3.60
2023-02-12T22:48:52.190Z,3.50
2023-02-12T22:51:22.024Z,3.40
2023-02-12T22:53:50.588Z,3.30
2023-02-12T22:56:19.153Z,3.20
2023-02-12T22:58:48.086Z,3.10
2023-02-12T23:01:18.138Z,3.00
2023-02-12T23:03:47.011Z,3.00
2023-02-12T23:06:18.481Z,2.90
2023-02-12T23:08:50.703Z,2.90
2023-02-12T23:11:20.085Z,2.80
2023-02-12T23:13:48.581Z,2.80
2023-02-12T23:16:17.196Z,2.80
2023-02-12T23:18:45.761Z,2.80
2023-02-12T23:21:14.312Z,2.80
2023-02-12T23:23:44.127Z,2.70
2023-02-12T23:26:12.544Z,2.70
2023-02-12T23:28:40.968Z,2.70
2023-02-12T23:31:09.702Z,2.60
2023-02-12T23:33:38.254Z,2.60
2023-02-12T23:36:07.414Z,2.60
2023-02-12T23:38:35.820Z,2.60
2023-02-12T23:41:05.839Z,2.60
2023-02-12T23:43:34.257Z,2.60
2023-02-12T23:46:03.776Z,2.60
2023-02-12T23:48:32.312Z,2.60
2023-02-12T23:51:00.787Z,2.50
2023-02-12T23:53:29.168Z,2.50
2023-02-12T23:55:57.667Z,2.40
2023-02-12T23:58:27.479Z,2.40
